Аэропорт: Брянск. Брянск

ICAO: UUBP

METAR:
2018/05/20 15:00
UUBP 201500Z 34004MPS CAVOK 13/06 Q1018 R34/CLRD70 NOSIG RMK QFE746/0994
METAR:
2010/09/15 10:45
TAF TAF UUBP 151045Z 1512/1524 18005G10MPS 9999 SCT030